Flood From: 18-02-2018 16:00 Until: 19-02-2018 16:00 warning for: Flood Level: Yellow info button

Although rather usual in this region, locally or potentially dangerous phenomena are expected. (such as local winds, summer thunderstorms, rising streams or high waves) Be aware and pay attention to the latest weather updates, especially if you carry out activities exposed to weather or close to a stream or shoreline. 


Meteo18 Weather Cam more information Meteo18 Weather Cam


Thunder radar more information blitzortung!


Rain radar more information rain snow radar


Visit our other weather sites:

Template documentation
and downloads

And another site



Weather Underground History page Text

Daily Summary for March 12, 2017 Units:  Metric    English   Both
« Previous Day
Next Day »
Daily Weekly Monthly Yearly Custom
  High: Low: Average:
Temperature: -17.8 °C -14.3 °C -11.6 °C
Dew Point: -17.8 °C -15.9 °C -14.1 °C
Humidity: Humidity % 58 % 74 %
Wind Speed: 0 km/h 0 km/h 7.7 km/h
Wind Gust: 0 km/h - -
Wind:- - WSW
Pressure: 0 hPa 34279.9 hPa -
Precipitation: 0 mm    
Historical Graphs
 
 
Tabular Data for March 12, 2017
Time Temperature Dew Point Pressure Wind Wind Speed Wind Gust Humidity Rainfall Rate (Hourly)
-17.8 °C -17.8 °C 0 hPa Calm     Humidity % 0 mm
00:02 -12.1 °C -15.8 °C 34361.1 hPa North 5.1 km/h 5.1 km/h 63 % 0 mm
00:07 -11.9 °C -15.9 °C 34361.1 hPa North 2.6 km/h 5.1 km/h 61 % 0 mm
00:12 -12 °C -15.7 °C 34361.1 hPa NNW 2.6 km/h 5.1 km/h 63 % 0 mm
00:17 -12 °C -15.6 °C 34361.1 hPa NNE 5.1 km/h 5.1 km/h 64 % 0 mm
00:22 -12 °C -15.6 °C 34361.1 hPa North 5.1 km/h 5.1 km/h 64 % 0 mm
00:32 -12.1 °C -15.4 °C 34361.1 hPa NNW 5.1 km/h 7.7 km/h 66 % 0 mm
00:37 -11.9 °C -15.5 °C 34347.6 hPa Calm   5.1 km/h 64 % 0 mm
00:42 -11.9 °C -15.5 °C 34347.6 hPa West 2.6 km/h 5.1 km/h 64 % 0 mm
00:52 -12.1 °C -15.5 °C 34347.6 hPa West 2.6 km/h 5.1 km/h 66 % 0 mm
00:57 -12.1 °C -15.4 °C 34361.1 hPa WSW 2.6 km/h 7.7 km/h 66 % 0 mm
01:02 -12 °C -15.5 °C 34361.1 hPa Calm   7.7 km/h 65 % 0 mm
01:07 -11.9 °C -15.5 °C 34347.6 hPa Calm   7.7 km/h 64 % 0 mm
01:12 -11.9 °C -15.4 °C 34347.6 hPa Calm   2.6 km/h 65 % 0 mm
01:17 -11.9 °C -15.5 °C 34347.6 hPa NE 2.6 km/h 2.6 km/h 64 % 0 mm
01:22 -11.9 °C -15.5 °C 34347.6 hPa Calm   5.1 km/h 64 % 0 mm
01:32 -12.1 °C -15.6 °C 34347.6 hPa Calm   5.1 km/h 65 % 0 mm
01:37 -12 °C -15.5 °C 34347.6 hPa NE 2.6 km/h 5.1 km/h 65 % 0 mm
01:42 -11.9 °C -15.5 °C 34347.6 hPa Calm   5.1 km/h 64 % 0 mm
01:52 -11.8 °C -15.4 °C 34347.6 hPa WNW 2.6 km/h 2.6 km/h 64 % 0 mm
01:57 -12.1 °C -15.7 °C 34347.6 hPa WNW 2.6 km/h 5.1 km/h 64 % 0 mm
02:02 -12.4 °C -15.5 °C 34347.6 hPa West 2.6 km/h 5.1 km/h 68 % 0 mm
02:07 -12.4 °C -15.5 °C 34347.6 hPa WNW 2.6 km/h 5.1 km/h 68 % 0 mm
02:12 -12.4 °C -15.6 °C 34347.6 hPa West 2.6 km/h 5.1 km/h 68 % 0 mm
02:17 -12.4 °C -15.6 °C 34337.4 hPa West 2.6 km/h 5.1 km/h 68 % 0 mm
02:22 -12.3 °C -15.6 °C 34337.4 hPa West 5.1 km/h 5.1 km/h 67 % 0 mm
02:27 -12.1 °C -15.5 °C 34337.4 hPa WSW 2.6 km/h 5.1 km/h 66 % 0 mm
02:32 -11.9 °C -15.6 °C 34337.4 hPa WSW 2.6 km/h 5.1 km/h 64 % 0 mm
02:42 -11.6 °C -15.6 °C 34327.3 hPa SW 2.6 km/h 5.1 km/h 61 % 0 mm
02:47 -11.7 °C -15.6 °C 34327.3 hPa Calm   5.1 km/h 62 % 0 mm
02:52 -12 °C -15.5 °C 34327.3 hPa Calm   5.1 km/h 65 % 0 mm
02:57 -12.1 °C -15.6 °C 34327.3 hPa Calm   2.6 km/h 65 % 0 mm
03:02 -12 °C -15.5 °C 34327.3 hPa Calm   2.6 km/h 65 % 0 mm
03:07 -12.2 °C -15.4 °C 34327.3 hPa Calm   2.6 km/h 67 % 0 mm
03:12 -12.4 °C -15.5 °C 34327.3 hPa WNW 2.6 km/h 2.6 km/h 68 % 0 mm
03:17 -12.3 °C -15.6 °C 34327.3 hPa West 2.6 km/h 2.6 km/h 67 % 0 mm
03:22 -12.2 °C -15.6 °C 34313.7 hPa West 2.6 km/h 2.6 km/h 66 % 0 mm
03:32 -12.3 °C -15.6 °C 34313.7 hPa Calm   2.6 km/h 67 % 0 mm
03:37 -12.3 °C -15.7 °C 34313.7 hPa Calm   2.6 km/h 66 % 0 mm
03:42 -12.3 °C -15.7 °C 34313.7 hPa Calm   2.6 km/h 66 % 0 mm
03:47 -12.2 °C -15.6 °C 34313.7 hPa Calm   2.6 km/h 66 % 0 mm
03:52 -12.2 °C -15.6 °C 34303.6 hPa Calm   2.6 km/h 66 % 0 mm
03:57 -12.2 °C -15.6 °C 34303.6 hPa Calm   2.6 km/h 66 % 0 mm
04:02 -12.1 °C -15.6 °C 34303.6 hPa West 2.6 km/h 2.6 km/h 65 % 0 mm
04:12 -12.3 °C -15.7 °C 34303.6 hPa WNW 2.6 km/h 2.6 km/h 66 % 0 mm
04:17 -12.3 °C -15.6 °C 34303.6 hPa Calm   2.6 km/h 67 % 0 mm
04:22 -12.6 °C -15.7 °C 34303.6 hPa Calm   2.6 km/h 68 % 0 mm
04:32 -12.6 °C -15.6 °C 34303.6 hPa Calm     69 % 0 mm
04:37 -12.6 °C -15.5 °C 34293.4 hPa Calm     70 % 0 mm
04:42 -12.7 °C -15.5 °C 34293.4 hPa WNW 2.6 km/h 2.6 km/h 71 % 0 mm
04:52 -12.9 °C -15.4 °C 34293.4 hPa WNW 2.6 km/h 2.6 km/h 73 % 0 mm
05:02 -13 °C -15.4 °C 34293.4 hPa Calm   5.1 km/h 74 % 0 mm
05:12 -13 °C -15.4 °C 34293.4 hPa Calm   5.1 km/h 74 % 0 mm
05:17 -13.2 °C -15.5 °C 34293.4 hPa Calm   2.6 km/h 75 % 0 mm
05:22 -13.4 °C -15.5 °C 34293.4 hPa Calm   2.6 km/h 77 % 0 mm
05:32 -13.5 °C -15.4 °C 34293.4 hPa Calm     79 % 0 mm
05:37 -13.6 °C -15.3 °C 34293.4 hPa Calm     80 % 0 mm
05:42 -13.6 °C -15.3 °C 34293.4 hPa Calm     81 % 0 mm
05:47 -13.6 °C -15.3 °C 34303.6 hPa Calm     80 % 0 mm
05:52 -13.7 °C -15.3 °C 34293.4 hPa WNW 2.6 km/h   81 % 0 mm
06:02 -13.7 °C -15.4 °C 34293.4 hPa Calm   5.1 km/h 80 % 0 mm
06:12 -13.6 °C -15.5 °C 34293.4 hPa Calm   5.1 km/h 79 % 0 mm
06:17 -13.5 °C -15.5 °C 34293.4 hPa Calm   2.6 km/h 78 % 0 mm
06:22 -13.4 °C -15.4 °C 34293.4 hPa ENE 2.6 km/h 2.6 km/h 78 % 0 mm
06:32 -13.7 °C -15.4 °C 34303.6 hPa Calm   2.6 km/h 80 % 0 mm
06:37 -13.9 °C -15.4 °C 34293.4 hPa Calm   2.6 km/h 83 % 0 mm
06:42 -14.1 °C -15.4 °C 34293.4 hPa Calm   2.6 km/h 84 % 0 mm
06:47 -14.1 °C -15.4 °C 34293.4 hPa Calm   2.6 km/h 85 % 0 mm
06:52 -14.1 °C -15.4 °C 34293.4 hPa Calm   2.6 km/h 85 % 0 mm
07:02 -14.1 °C -15.4 °C 34293.4 hPa Calm   2.6 km/h 85 % 0 mm
07:07 -14.2 °C -15.4 °C 34303.6 hPa Calm     86 % 0 mm
07:12 -14.2 °C -15.4 °C 34303.6 hPa Calm     86 % 0 mm
07:17 -14.3 °C -15.5 °C 34303.6 hPa Calm   2.6 km/h 86 % 0 mm
07:22 -14.3 °C -15.4 °C 34303.6 hPa Calm   2.6 km/h 87 % 0 mm
07:27 -14.3 °C -15.3 °C 34303.6 hPa SSW 2.6 km/h 5.1 km/h 88 % 0 mm
07:32 -14.3 °C -15.3 °C 34303.6 hPa SSW 10.3 km/h 10.3 km/h 88 % 0 mm
07:42 -14.1 °C -15.1 °C 34313.7 hPa SSW 10.3 km/h 12.9 km/h 88 % 0 mm
07:47 -13.9 °C -15.1 °C 34313.7 hPa SSW 12.9 km/h 23.3 km/h 87 % 0 mm
07:57 -13.6 °C -14.9 °C 34313.7 hPa SW 7.7 km/h 23.3 km/h 85 % 0 mm
08:02 -13.5 °C -14.8 °C 34313.7 hPa SSW 5.1 km/h 23.3 km/h 85 % 0 mm
08:12 -13.3 °C -14.5 °C 34327.3 hPa SW 23.3 km/h 23.3 km/h 86 % 0 mm
08:17 -13.2 °C -14.3 °C 34327.3 hPa SW 12.9 km/h 25.9 km/h 87 % 0 mm
08:22 -13.2 °C -14.2 °C 34327.3 hPa WSW 20.8 km/h 25.9 km/h 88 % 0 mm
08:27 -13.1 °C -14.2 °C 34327.3 hPa SW 20.8 km/h 25.9 km/h 88 % 0 mm
08:32 -13 °C -13.9 °C 34327.3 hPa WSW 7.7 km/h 25.9 km/h 89 % 0 mm
08:37 -12.9 °C -13.9 °C 34327.3 hPa WSW 7.7 km/h 25.9 km/h 89 % 0 mm
08:42 -12.8 °C -13.8 °C 34327.3 hPa SSW 7.7 km/h 25.9 km/h 89 % 0 mm
08:52 -12.7 °C -13.7 °C 34327.3 hPa West 7.7 km/h 20.8 km/h 89 % 0 mm
08:57 -12.7 °C -13.6 °C 34327.3 hPa SW 5.1 km/h 18.2 km/h 89 % 0 mm
09:02 -12.6 °C -13.6 °C 34327.3 hPa West 5.1 km/h 18.2 km/h 89 % 0 mm
09:12 -12.5 °C -13.4 °C 34327.3 hPa SW 10.3 km/h 20.8 km/h 89 % 0 mm
09:22 -12.4 °C -13.5 °C 34327.3 hPa SSW 12.9 km/h 28.5 km/h 88 % 0 mm
09:32 -12.6 °C -13.5 °C 34327.3 hPa WSW 10.3 km/h 23.3 km/h 89 % 0 mm
09:37 -12.5 °C -13.4 °C 34327.3 hPa SW 5.1 km/h 23.3 km/h 89 % 0 mm
09:42 -12.4 °C -13.4 °C 34327.3 hPa SW 7.7 km/h 23.3 km/h 89 % 0 mm
09:52 -12.3 °C -13.2 °C 34327.3 hPa SW 23.3 km/h 23.3 km/h 89 % 0 mm
09:57 -12.3 °C -13.3 °C 34327.3 hPa WSW 15.6 km/h 31.1 km/h 88 % 0 mm
10:02 -12.2 °C -13.1 °C 34327.3 hPa West 15.6 km/h 31.1 km/h 89 % 0 mm
10:07 -12.1 °C -13.1 °C 34327.3 hPa WSW 10.3 km/h 31.1 km/h 88 % 0 mm
10:12 -11.9 °C -12.9 °C 34327.3 hPa SW 33.6 km/h 33.6 km/h 88 % 0 mm
10:17 -11.9 °C -13 °C 34327.3 hPa WSW 15.6 km/h 31.1 km/h 88 % 0 mm
10:22 -11.9 °C -12.9 °C 34327.3 hPa WSW 5.1 km/h 36.2 km/h 88 % 0 mm
10:32 -11.8 °C -13 °C 34327.3 hPa WSW 25.9 km/h 36.2 km/h 86 % 0 mm
10:37 -11.6 °C -12.8 °C 34327.3 hPa West 18.2 km/h 36.2 km/h 87 % 0 mm
10:47 -11.4 °C -12.8 °C 34327.3 hPa WSW 18.2 km/h 25.9 km/h 84 % 0 mm
10:52 -11.3 °C -12.7 °C 34327.3 hPa WNW 10.3 km/h 25.9 km/h 84 % 0 mm
11:02 -11.3 °C -12.9 °C 34313.7 hPa West 18.2 km/h 25.9 km/h 82 % 0 mm
11:12 -11.1 °C -12.8 °C 34313.7 hPa West 12.9 km/h 33.6 km/h 81 % 0 mm
11:17 -11 °C -12.8 °C 34313.7 hPa West 5.1 km/h 28.5 km/h 81 % 0 mm
11:22 -10.8 °C -12.7 °C 34313.7 hPa WNW 7.7 km/h 28.5 km/h 80 % 0 mm
11:32 -10.7 °C -12.7 °C 34313.7 hPa West 18.2 km/h 23.3 km/h 79 % 0 mm
11:42 -10.5 °C -12.9 °C 34313.7 hPa West 18.2 km/h 25.9 km/h 75 % 0 mm
11:47 -10.4 °C -12.8 °C 34313.7 hPa West 20.8 km/h 25.9 km/h 75 % 0 mm
11:52 -10.3 °C -12.7 °C 34313.7 hPa West 20.8 km/h 28.5 km/h 75 % 0 mm
12:02 -10.2 °C -12.7 °C 34313.7 hPa West 10.3 km/h 28.5 km/h 74 % 0 mm
12:12 -10.1 °C -12.6 °C 34313.7 hPa West 12.9 km/h 23.3 km/h 74 % 0 mm
12:17 -10 °C -12.8 °C 34313.7 hPa West 15.6 km/h 23.3 km/h 72 % 0 mm
12:22 -10 °C -12.9 °C 34313.7 hPa SSW 7.7 km/h 25.9 km/h 71 % 0 mm
12:27 -9.8 °C -12.7 °C 34313.7 hPa WSW 12.9 km/h 25.9 km/h 71 % 0 mm
12:32 -9.8 °C -12.6 °C 34313.7 hPa West 15.6 km/h 23.3 km/h 72 % 0 mm
12:42 -9.7 °C -12.8 °C 34303.6 hPa WNW 10.3 km/h 23.3 km/h 69 % 0 mm
12:52 -9.6 °C -12.8 °C 34303.6 hPa WSW 7.7 km/h 20.8 km/h 68 % 0 mm
12:57 -9.6 °C -12.8 °C 34303.6 hPa WSW 5.1 km/h 20.8 km/h 68 % 0 mm
13:02 -9.5 °C -12.2 °C 34303.6 hPa SSW 20.8 km/h 20.8 km/h 73 % 0 mm
13:07 -9.6 °C -12.3 °C 34303.6 hPa SSW 12.9 km/h 25.9 km/h 72 % 0 mm
13:12 -9.6 °C -12.1 °C 34303.6 hPa SSW 20.8 km/h 28.5 km/h 74 % 0 mm
13:17 -9.5 °C -12.2 °C 34303.6 hPa South 15.6 km/h 28.5 km/h 73 % 0 mm
13:22 -9.3 °C -12.1 °C 34303.6 hPa West 12.9 km/h 31.1 km/h 72 % 0 mm
13:27 -9.2 °C -12.2 °C 34303.6 hPa WSW 10.3 km/h 31.1 km/h 70 % 0 mm
13:32 -9.1 °C -12.3 °C 34303.6 hPa West 15.6 km/h 31.1 km/h 69 % 0 mm
13:42 -9.1 °C -12.4 °C 34293.4 hPa SSW 12.9 km/h 25.9 km/h 67 % 0 mm
13:47 -9.1 °C -12.4 °C 34293.4 hPa South 10.3 km/h 28.5 km/h 67 % 0 mm
13:52 -8.9 °C -12.2 °C 34293.4 hPa SSW 15.6 km/h 28.5 km/h 68 % 0 mm
13:57 -9 °C -12.4 °C 34293.4 hPa SW 7.7 km/h 25.9 km/h 67 % 0 mm
14:02 -8.8 °C -12.4 °C 34293.4 hPa South 10.3 km/h 28.5 km/h 66 % 0 mm
14:07 -8.8 °C -12.2 °C 34293.4 hPa SW 25.9 km/h 28.5 km/h 67 % 0 mm
14:12 -8.8 °C -12.4 °C 34293.4 hPa SSW 23.3 km/h 31.1 km/h 66 % 0 mm
14:17 -8.9 °C -12.3 °C 34293.4 hPa SSW 25.9 km/h 33.6 km/h 67 % 0 mm
14:22 -8.9 °C -12.4 °C 34293.4 hPa SW 23.3 km/h 33.6 km/h 66 % 0 mm
14:32 -8.9 °C -12.8 °C 34293.4 hPa West 12.9 km/h 28.5 km/h 63 % 0 mm
14:37 -8.9 °C -12.6 °C 34293.4 hPa SW 20.8 km/h 28.5 km/h 65 % 0 mm
14:42 -8.8 °C -12.7 °C 34293.4 hPa West 10.3 km/h 28.5 km/h 63 % 0 mm
14:52 -8.7 °C -12.7 °C 34293.4 hPa SW 12.9 km/h 28.5 km/h 63 % 0 mm
14:57 -8.7 °C -12.6 °C 34293.4 hPa SW 20.8 km/h 23.3 km/h 63 % 0 mm
15:02 -8.7 °C -12.7 °C 34293.4 hPa SW 25.9 km/h 25.9 km/h 62 % 0 mm
15:07 -8.7 °C -12.8 °C 34293.4 hPa WSW 18.2 km/h 28.5 km/h 62 % 0 mm
15:12 -8.7 °C -12.6 °C 34293.4 hPa West 5.1 km/h 28.5 km/h 63 % 0 mm
15:17 -8.6 °C -12.6 °C 34293.4 hPa SSW 12.9 km/h 28.5 km/h 63 % 0 mm
15:22 -8.4 °C -12.8 °C 34293.4 hPa West 15.6 km/h 25.9 km/h 60 % 0 mm
15:32 -8.5 °C -12.7 °C 34279.9 hPa SSE 5.1 km/h 25.9 km/h 61 % 0 mm
15:37 -8.4 °C -12.7 °C 34279.9 hPa South 18.2 km/h 25.9 km/h 61 % 0 mm
15:42 -8.5 °C -12.8 °C 34279.9 hPa SW 15.6 km/h 28.5 km/h 60 % 0 mm
15:47 -8.4 °C -12.5 °C 34293.4 hPa SW 5.1 km/h 28.5 km/h 62 % 0 mm
15:52 -8.3 °C -12.6 °C 34293.4 hPa SSW 2.6 km/h 28.5 km/h 61 % 0 mm
18:37 -9.5 °C -14.1 °C 34327.3 hPa WNW 2.6 km/h 10.3 km/h 58 % 0 mm
18:42 -9.6 °C -14.2 °C 34327.3 hPa WNW 2.6 km/h 12.9 km/h 58 % 0 mm
18:47 -9.7 °C -14.1 °C 34327.3 hPa NW 2.6 km/h 12.9 km/h 59 % 0 mm
18:52 -9.8 °C -14.2 °C 34327.3 hPa Calm   10.3 km/h 59 % 0 mm
18:57 -9.8 °C -14.2 °C 34327.3 hPa WNW 2.6 km/h 7.7 km/h 59 % 0 mm
19:02 -9.9 °C -14.4 °C 34337.4 hPa WNW 2.6 km/h 5.1 km/h 58 % 0 mm
19:12 -10.1 °C -14.6 °C 34337.4 hPa Calm   5.1 km/h 58 % 0 mm
19:22 -10.2 °C -14.7 °C 34337.4 hPa Calm     58 % 0 mm
19:27 -10.3 °C -14.7 °C 34347.6 hPa Calm     59 % 0 mm
19:32 -10.2 °C -14.7 °C 34347.6 hPa Calm     58 % 0 mm
19:37 -10.3 °C -14.5 °C 34347.6 hPa NNE 2.6 km/h 2.6 km/h 60 % 0 mm
19:42 -10.4 °C -14.7 °C 34347.6 hPa NNW 2.6 km/h 5.1 km/h 59 % 0 mm
19:52 -10.3 °C -14.7 °C 34347.6 hPa WNW 2.6 km/h 5.1 km/h 59 % 0 mm
19:57 -10.4 °C -14.7 °C 34347.6 hPa WNW 5.1 km/h 10.3 km/h 60 % 0 mm
20:02 -10.6 °C -14.6 °C 34361.1 hPa NW 5.1 km/h 10.3 km/h 62 % 0 mm
20:12 -10.5 °C -14.4 °C 34361.1 hPa NW 7.7 km/h 12.9 km/h 62 % 0 mm
20:17 -10.6 °C -14.4 °C 34371.3 hPa NW 2.6 km/h 12.9 km/h 63 % 0 mm
20:22 -10.7 °C -14.4 °C 34371.3 hPa NNW 2.6 km/h 10.3 km/h 64 % 0 mm
20:32 -10.9 °C -14.6 °C 34371.3 hPa West 7.7 km/h 10.3 km/h 64 % 0 mm
20:42 -11.2 °C -14.1 °C 34384.8 hPa NW 5.1 km/h 12.9 km/h 71 % 0 mm
20:52 -11.2 °C -13.2 °C 34384.8 hPa NW 7.7 km/h 18.2 km/h 79 % 0 mm
20:57 -11.2 °C -13.1 °C 34395 hPa NW 7.7 km/h 20.8 km/h 80 % 0 mm
21:02 -11.2 °C -12.9 °C 34395 hPa NNW 15.6 km/h 31.1 km/h 82 % 0 mm
21:07 -11.3 °C -12.7 °C 34395 hPa WNW 10.3 km/h 31.1 km/h 84 % 0 mm
21:12 -11.3 °C -12.6 °C 34395 hPa WNW 20.8 km/h 31.1 km/h 85 % 0 mm
21:17 -11.3 °C -12.7 °C 34395 hPa WNW 18.2 km/h 33.6 km/h 85 % 0 mm
21:22 -11.3 °C -12.6 °C 34405.1 hPa NW 15.6 km/h 33.6 km/h 86 % 0 mm
21:32 -11.5 °C -12.7 °C 34405.1 hPa North 10.3 km/h 28.5 km/h 87 % 0 mm
21:42 -11.6 °C -12.6 °C 34418.7 hPa NNW 10.3 km/h 23.3 km/h 88 % 0 mm
21:52 -11.6 °C -12.7 °C 34418.7 hPa WNW 5.1 km/h 25.9 km/h 88 % 0 mm
21:57 -11.7 °C -12.7 °C 34418.7 hPa NW 5.1 km/h 25.9 km/h 89 % 0 mm
22:02 -11.8 °C -12.7 °C 34428.8 hPa North 10.3 km/h 23.3 km/h 89 % 0 mm
22:07 -11.8 °C -12.7 °C 34418.7 hPa NW 7.7 km/h 23.3 km/h 89 % 0 mm
22:12 -11.8 °C -12.7 °C 34428.8 hPa NNW 10.3 km/h 23.3 km/h 89 % 0 mm
22:17 -11.8 °C -12.7 °C 34428.8 hPa NW 7.7 km/h 25.9 km/h 90 % 0 mm
22:22 -11.8 °C -12.7 °C 34428.8 hPa WNW 7.7 km/h 25.9 km/h 90 % 0 mm
22:27 -11.8 °C -12.7 °C 34428.8 hPa North 7.7 km/h 25.9 km/h 90 % 0 mm
22:32 -11.9 °C -12.8 °C 34428.8 hPa NNW 20.8 km/h 28.5 km/h 90 % 0 mm
22:37 -11.9 °C -12.8 °C 34428.8 hPa NNW 10.3 km/h 28.5 km/h 90 % 0 mm
22:42 -11.9 °C -12.8 °C 34442.4 hPa NNW 12.9 km/h 28.5 km/h 90 % 0 mm
22:47 -11.9 °C -12.8 °C 34442.4 hPa NW 7.7 km/h 28.5 km/h 90 % 0 mm
22:52 -12 °C -12.9 °C 34442.4 hPa NW 10.3 km/h 28.5 km/h 90 % 0 mm
22:57 -12 °C -12.9 °C 34442.4 hPa WNW 7.7 km/h 33.6 km/h 90 % 0 mm
23:02 -12 °C -12.8 °C 34442.4 hPa WNW 20.8 km/h 33.6 km/h 91 % 0 mm
23:07 -12 °C -12.8 °C 34442.4 hPa NNW 20.8 km/h 33.6 km/h 91 % 0 mm
23:12 -12 °C -12.8 °C 34442.4 hPa NW 15.6 km/h 33.6 km/h 91 % 0 mm
23:17 -12.1 °C -12.8 °C 34442.4 hPa NNW 5.1 km/h 33.6 km/h 91 % 0 mm
23:22 -12.1 °C -12.8 °C 34452.6 hPa NNW 7.7 km/h 33.6 km/h 91 % 0 mm
23:32 -12.1 °C -12.9 °C 34452.6 hPa NNW 7.7 km/h 20.8 km/h 91 % 0 mm
23:37 -12.1 °C -12.9 °C 34452.6 hPa NNW 5.1 km/h 20.8 km/h 91 % 0 mm
23:42 -12.1 °C -12.9 °C 34452.6 hPa NW 5.1 km/h 18.2 km/h 91 % 0 mm
23:47 -12.1 °C -12.9 °C 34452.6 hPa WNW 2.6 km/h 18.2 km/h 91 % 0 mm
23:52 -12.2 °C -12.9 °C 34462.7 hPa NNW 10.3 km/h 18.2 km/h 91 % 0 mm
23:57 -12.2 °C -12.8 °C 34462.7 hPa NW 15.6 km/h 20.8 km/h 92 % 0 mm
Meteo18
Compliments of Weather Underground - 4 mb

Script developed by  Jim McMurry - jmcmurry@mwt.net Adapted for the template by  Wim van der Kuil - Leuven-Template.eu

You find our weather info also at:

European Weather Network

Weather Underground

Equipment we use:

Weather-station
Davis Vue

Weather-program
Meteobridge

Weather-server
Raspberry PI 2 B+

Provider
1 and 1

Davis Vue

Meteobridge

Raspberry PI 2 B+

1 and 1